sensor_id;sensor_type;location;lat;lon;timestamp;temperature;humidity
46356;DHT22;32066;49.474;11.106;2022-12-07T00:01:53;6.80;99.90
46356;DHT22;32066;49.474;11.106;2022-12-07T00:04:21;6.80;99.90
46356;DHT22;32066;49.474;11.106;2022-12-07T00:06:51;6.80;99.90
46356;DHT22;32066;49.474;11.106;2022-12-07T00:09:18;6.80;99.90
46356;DHT22;32066;49.474;11.106;2022-12-07T00:11:48;6.80;99.90
46356;DHT22;32066;49.474;11.106;2022-12-07T00:14:16;6.80;99.90
46356;DHT22;32066;49.474;11.106;2022-12-07T00:16:44;6.70;99.90
46356;DHT22;32066;49.474;11.106;2022-12-07T00:19:11;6.70;99.90
46356;DHT22;32066;49.474;11.106;2022-12-07T00:21:40;6.70;99.90
46356;DHT22;32066;49.474;11.106;2022-12-07T00:24:09;6.70;99.90
46356;DHT22;32066;49.474;11.106;2022-12-07T00:26:37;6.80;99.90
46356;DHT22;32066;49.474;11.106;2022-12-07T00:29:07;6.80;99.90
46356;DHT22;32066;49.474;11.106;2022-12-07T00:31:36;6.70;99.90
46356;DHT22;32066;49.474;11.106;2022-12-07T00:34:04;6.70;99.90
46356;DHT22;32066;49.474;11.106;2022-12-07T00:36:32;6.80;99.90
46356;DHT22;32066;49.474;11.106;2022-12-07T00:39:00;6.80;99.90
46356;DHT22;32066;49.474;11.106;2022-12-07T00:41:28;6.70;99.90
46356;DHT22;32066;49.474;11.106;2022-12-07T00:43:55;6.70;99.90
46356;DHT22;32066;49.474;11.106;2022-12-07T00:46:22;6.70;99.90
46356;DHT22;32066;49.474;11.106;2022-12-07T00:48:50;6.70;99.90
46356;DHT22;32066;49.474;11.106;2022-12-07T00:51:19;6.70;99.90
46356;DHT22;32066;49.474;11.106;2022-12-07T00:53:46;6.70;99.90
46356;DHT22;32066;49.474;11.106;2022-12-07T00:56:16;6.70;99.90
46356;DHT22;32066;49.474;11.106;2022-12-07T00:58:43;6.60;99.90
46356;DHT22;32066;49.474;11.106;2022-12-07T01:01:11;6.60;99.90
46356;DHT22;32066;49.474;11.106;2022-12-07T01:03:38;6.70;99.90
46356;DHT22;32066;49.474;11.106;2022-12-07T01:06:05;6.70;99.90
46356;DHT22;32066;49.474;11.106;2022-12-07T01:08:32;6.60;99.90
46356;DHT22;32066;49.474;11.106;2022-12-07T01:11:00;6.70;99.90
46356;DHT22;32066;49.474;11.106;2022-12-07T01:13:29;6.70;99.90
46356;DHT22;32066;49.474;11.106;2022-12-07T01:15:57;6.70;99.90
46356;DHT22;32066;49.474;11.106;2022-12-07T01:18:25;6.70;99.90
46356;DHT22;32066;49.474;11.106;2022-12-07T01:21:00;6.80;99.90
46356;DHT22;32066;49.474;11.106;2022-12-07T01:23:28;6.80;99.90
46356;DHT22;32066;49.474;11.106;2022-12-07T01:25:55;6.70;99.90
46356;DHT22;32066;49.474;11.106;2022-12-07T01:28:22;6.70;99.90
46356;DHT22;32066;49.474;11.106;2022-12-07T01:31:00;6.70;99.90
46356;DHT22;32066;49.474;11.106;2022-12-07T01:33:28;6.70;99.90
46356;DHT22;32066;49.474;11.106;2022-12-07T01:36:00;6.70;99.90
46356;DHT22;32066;49.474;11.106;2022-12-07T01:38:28;6.70;99.90
46356;DHT22;32066;49.474;11.106;2022-12-07T01:40:56;6.80;99.90
46356;DHT22;32066;49.474;11.106;2022-12-07T01:43:24;6.70;99.90
46356;DHT22;32066;49.474;11.106;2022-12-07T01:45:52;6.70;99.90
46356;DHT22;32066;49.474;11.106;2022-12-07T01:48:24;6.70;99.90
46356;DHT22;32066;49.474;11.106;2022-12-07T01:50:54;6.60;99.90
46356;DHT22;32066;49.474;11.106;2022-12-07T01:53:24;6.70;99.90
46356;DHT22;32066;49.474;11.106;2022-12-07T01:55:52;6.70;99.90
46356;DHT22;32066;49.474;11.106;2022-12-07T01:58:20;6.70;99.90
46356;DHT22;32066;49.474;11.106;2022-12-07T02:00:47;6.70;99.90
46356;DHT22;32066;49.474;11.106;2022-12-07T02:03:18;6.70;99.90
46356;DHT22;32066;49.474;11.106;2022-12-07T02:05:48;6.70;99.90
46356;DHT22;32066;49.474;11.106;2022-12-07T02:08:16;6.70;99.90
46356;DHT22;32066;49.474;11.106;2022-12-07T02:10:43;6.70;99.90
46356;DHT22;32066;49.474;11.106;2022-12-07T02:13:13;6.70;99.90
46356;DHT22;32066;49.474;11.106;2022-12-07T02:15:56;6.70;99.90
46356;DHT22;32066;49.474;11.106;2022-12-07T02:18:34;6.70;99.90
46356;DHT22;32066;49.474;11.106;2022-12-07T02:21:11;6.70;99.90
46356;DHT22;32066;49.474;11.106;2022-12-07T02:24:00;6.70;99.90
46356;DHT22;32066;49.474;11.106;2022-12-07T02:27:01;6.70;99.90
46356;DHT22;32066;49.474;11.106;2022-12-07T02:29:37;6.70;99.90
46356;DHT22;32066;49.474;11.106;2022-12-07T02:32:12;6.70;99.90
46356;DHT22;32066;49.474;11.106;2022-12-07T02:34:46;6.70;99.90
46356;DHT22;32066;49.474;11.106;2022-12-07T02:37:21;6.80;99.90
46356;DHT22;32066;49.474;11.106;2022-12-07T02:39:52;6.70;99.90
46356;DHT22;32066;49.474;11.106;2022-12-07T02:42:25;6.70;99.90
46356;DHT22;32066;49.474;11.106;2022-12-07T02:44:57;6.70;99.90
46356;DHT22;32066;49.474;11.106;2022-12-07T02:47:26;6.70;99.90
46356;DHT22;32066;49.474;11.106;2022-12-07T02:49:54;6.70;99.90
46356;DHT22;32066;49.474;11.106;2022-12-07T02:52:21;6.70;99.90
46356;DHT22;32066;49.474;11.106;2022-12-07T02:54:48;6.70;99.90
46356;DHT22;32066;49.474;11.106;2022-12-07T02:57:25;6.70;99.90
46356;DHT22;32066;49.474;11.106;2022-12-07T03:00:01;6.70;99.90
46356;DHT22;32066;49.474;11.106;2022-12-07T03:02:36;6.70;99.90
46356;DHT22;32066;49.474;11.106;2022-12-07T03:05:23;6.70;99.90
46356;DHT22;32066;49.474;11.106;2022-12-07T03:07:59;6.70;99.90
46356;DHT22;32066;49.474;11.106;2022-12-07T03:10:35;6.70;99.90
46356;DHT22;32066;49.474;11.106;2022-12-07T03:13:09;6.70;99.90
46356;DHT22;32066;49.474;11.106;2022-12-07T03:15:44;6.70;99.90
46356;DHT22;32066;49.474;11.106;2022-12-07T03:18:16;6.60;99.90
46356;DHT22;32066;49.474;11.106;2022-12-07T03:20:44;6.60;99.90
46356;DHT22;32066;49.474;11.106;2022-12-07T03:23:12;6.60;99.90
46356;DHT22;32066;49.474;11.106;2022-12-07T03:25:40;6.50;99.90
46356;DHT22;32066;49.474;11.106;2022-12-07T03:28:12;6.50;99.90
46356;DHT22;32066;49.474;11.106;2022-12-07T03:30:45;6.50;99.90
46356;DHT22;32066;49.474;11.106;2022-12-07T03:33:15;6.50;99.90
46356;DHT22;32066;49.474;11.106;2022-12-07T03:35:49;6.50;99.90
46356;DHT22;32066;49.474;11.106;2022-12-07T03:38:20;6.50;99.90
46356;DHT22;32066;49.474;11.106;2022-12-07T03:40:52;6.50;99.90
46356;DHT22;32066;49.474;11.106;2022-12-07T03:43:21;6.50;99.90
46356;DHT22;32066;49.474;11.106;2022-12-07T03:45:56;6.40;99.90
46356;DHT22;32066;49.474;11.106;2022-12-07T03:48:33;6.40;99.90
46356;DHT22;32066;49.474;11.106;2022-12-07T03:51:06;6.40;99.90
46356;DHT22;32066;49.474;11.106;2022-12-07T03:53:41;6.40;99.90
46356;DHT22;32066;49.474;11.106;2022-12-07T03:56:10;6.40;99.90
46356;DHT22;32066;49.474;11.106;2022-12-07T03:58:38;6.40;99.90
46356;DHT22;32066;49.474;11.106;2022-12-07T04:01:07;6.50;99.90
46356;DHT22;32066;49.474;11.106;2022-12-07T04:03:34;6.50;99.90
46356;DHT22;32066;49.474;11.106;2022-12-07T04:06:01;6.50;99.90
46356;DHT22;32066;49.474;11.106;2022-12-07T04:08:28;6.50;99.90
46356;DHT22;32066;49.474;11.106;2022-12-07T04:10:55;6.50;99.90
46356;DHT22;32066;49.474;11.106;2022-12-07T04:13:22;6.50;99.90
46356;DHT22;32066;49.474;11.106;2022-12-07T04:15:48;6.50;99.90
46356;DHT22;32066;49.474;11.106;2022-12-07T04:18:17;6.50;99.90
46356;DHT22;32066;49.474;11.106;2022-12-07T04:20:43;6.40;99.90
46356;DHT22;32066;49.474;11.106;2022-12-07T04:23:11;6.40;99.90
46356;DHT22;32066;49.474;11.106;2022-12-07T04:25:38;6.40;99.90
46356;DHT22;32066;49.474;11.106;2022-12-07T04:28:05;6.40;99.90
46356;DHT22;32066;49.474;11.106;2022-12-07T04:30:32;6.40;99.90
46356;DHT22;32066;49.474;11.106;2022-12-07T04:32:59;6.40;99.90
46356;DHT22;32066;49.474;11.106;2022-12-07T04:35:27;6.40;99.90
46356;DHT22;32066;49.474;11.106;2022-12-07T04:37:53;6.40;99.90
46356;DHT22;32066;49.474;11.106;2022-12-07T04:40:20;6.40;99.90
46356;DHT22;32066;49.474;11.106;2022-12-07T04:42:47;6.40;99.90
46356;DHT22;32066;49.474;11.106;2022-12-07T04:45:14;6.40;99.90
46356;DHT22;32066;49.474;11.106;2022-12-07T04:47:41;6.40;99.90
46356;DHT22;32066;49.474;11.106;2022-12-07T04:50:10;6.40;99.90
46356;DHT22;32066;49.474;11.106;2022-12-07T04:52:38;6.30;99.90
46356;DHT22;32066;49.474;11.106;2022-12-07T04:55:05;6.30;99.90
46356;DHT22;32066;49.474;11.106;2022-12-07T04:57:32;6.40;99.90
46356;DHT22;32066;49.474;11.106;2022-12-07T04:59:59;6.40;99.90
46356;DHT22;32066;49.474;11.106;2022-12-07T05:02:25;6.40;99.90
46356;DHT22;32066;49.474;11.106;2022-12-07T05:04:52;6.30;99.90
46356;DHT22;32066;49.474;11.106;2022-12-07T05:07:19;6.30;99.90
46356;DHT22;32066;49.474;11.106;2022-12-07T05:09:47;6.30;99.90
46356;DHT22;32066;49.474;11.106;2022-12-07T05:12:14;6.30;99.90
46356;DHT22;32066;49.474;11.106;2022-12-07T05:14:41;6.20;99.90
46356;DHT22;32066;49.474;11.106;2022-12-07T05:17:07;6.30;99.90
46356;DHT22;32066;49.474;11.106;2022-12-07T05:19:34;6.30;99.90
46356;DHT22;32066;49.474;11.106;2022-12-07T05:22:01;6.30;99.90
46356;DHT22;32066;49.474;11.106;2022-12-07T05:24:28;6.30;99.90
46356;DHT22;32066;49.474;11.106;2022-12-07T05:26:56;6.30;99.90
46356;DHT22;32066;49.474;11.106;2022-12-07T05:29:23;6.30;99.90
46356;DHT22;32066;49.474;11.106;2022-12-07T05:31:50;6.30;99.90
46356;DHT22;32066;49.474;11.106;2022-12-07T05:34:17;6.20;99.90
46356;DHT22;32066;49.474;11.106;2022-12-07T05:36:43;6.20;99.90
46356;DHT22;32066;49.474;11.106;2022-12-07T05:39:10;6.20;99.90
46356;DHT22;32066;49.474;11.106;2022-12-07T05:41:37;6.20;99.90
46356;DHT22;32066;49.474;11.106;2022-12-07T05:44:23;6.30;99.90
46356;DHT22;32066;49.474;11.106;2022-12-07T05:46:50;6.20;99.90
46356;DHT22;32066;49.474;11.106;2022-12-07T05:49:16;6.20;99.90
46356;DHT22;32066;49.474;11.106;2022-12-07T05:51:43;6.30;99.90
46356;DHT22;32066;49.474;11.106;2022-12-07T05:54:10;6.30;99.90
46356;DHT22;32066;49.474;11.106;2022-12-07T05:56:37;6.30;99.90
46356;DHT22;32066;49.474;11.106;2022-12-07T05:59:04;6.30;99.90
46356;DHT22;32066;49.474;11.106;2022-12-07T06:01:50;6.30;99.90
46356;DHT22;32066;49.474;11.106;2022-12-07T06:04:17;6.30;99.90
46356;DHT22;32066;49.474;11.106;2022-12-07T06:06:45;6.30;99.90
46356;DHT22;32066;49.474;11.106;2022-12-07T06:09:12;6.20;99.90
46356;DHT22;32066;49.474;11.106;2022-12-07T06:11:39;6.20;99.90
46356;DHT22;32066;49.474;11.106;2022-12-07T06:14:24;6.20;99.90
46356;DHT22;32066;49.474;11.106;2022-12-07T06:16:52;6.20;99.90
46356;DHT22;32066;49.474;11.106;2022-12-07T06:19:19;6.20;99.90
46356;DHT22;32066;49.474;11.106;2022-12-07T06:21:45;6.20;99.90
46356;DHT22;32066;49.474;11.106;2022-12-07T06:24:13;6.20;99.90
46356;DHT22;32066;49.474;11.106;2022-12-07T06:26:40;6.20;99.90
46356;DHT22;32066;49.474;11.106;2022-12-07T06:29:08;6.30;99.90
46356;DHT22;32066;49.474;11.106;2022-12-07T06:31:35;6.30;99.90
46356;DHT22;32066;49.474;11.106;2022-12-07T06:34:05;6.30;99.90
46356;DHT22;32066;49.474;11.106;2022-12-07T06:36:33;6.30;99.90
46356;DHT22;32066;49.474;11.106;2022-12-07T06:38:59;6.20;99.90
46356;DHT22;32066;49.474;11.106;2022-12-07T06:41:26;6.20;99.90
46356;DHT22;32066;49.474;11.106;2022-12-07T06:43:53;6.20;99.90
46356;DHT22;32066;49.474;11.106;2022-12-07T06:46:20;6.20;99.90
46356;DHT22;32066;49.474;11.106;2022-12-07T06:48:47;6.20;99.90
46356;DHT22;32066;49.474;11.106;2022-12-07T06:51:16;6.20;99.90
46356;DHT22;32066;49.474;11.106;2022-12-07T06:53:42;6.20;99.90
46356;DHT22;32066;49.474;11.106;2022-12-07T06:56:09;6.20;99.90
46356;DHT22;32066;49.474;11.106;2022-12-07T06:58:36;6.20;99.90
46356;DHT22;32066;49.474;11.106;2022-12-07T07:01:07;6.30;99.80
46356;DHT22;32066;49.474;11.106;2022-12-07T07:03:34;6.20;99.90
46356;DHT22;32066;49.474;11.106;2022-12-07T07:06:01;6.20;99.90
46356;DHT22;32066;49.474;11.106;2022-12-07T07:08:29;6.20;99.90
46356;DHT22;32066;49.474;11.106;2022-12-07T07:10:56;6.30;99.80
46356;DHT22;32066;49.474;11.106;2022-12-07T07:13:23;6.30;99.70
46356;DHT22;32066;49.474;11.106;2022-12-07T07:15:50;6.30;99.60
46356;DHT22;32066;49.474;11.106;2022-12-07T07:18:16;6.30;99.60
46356;DHT22;32066;49.474;11.106;2022-12-07T07:20:43;6.30;99.60
46356;DHT22;32066;49.474;11.106;2022-12-07T07:23:10;6.40;99.70
46356;DHT22;32066;49.474;11.106;2022-12-07T07:25:39;6.30;99.60
46356;DHT22;32066;49.474;11.106;2022-12-07T07:28:06;6.40;99.60
46356;DHT22;32066;49.474;11.106;2022-12-07T07:30:33;6.40;99.60
46356;DHT22;32066;49.474;11.106;2022-12-07T07:33:01;6.40;99.60
46356;DHT22;32066;49.474;11.106;2022-12-07T07:35:29;6.40;99.50
46356;DHT22;32066;49.474;11.106;2022-12-07T07:37:56;6.40;99.50
46356;DHT22;32066;49.474;11.106;2022-12-07T07:40:24;6.40;99.50
46356;DHT22;32066;49.474;11.106;2022-12-07T07:42:53;6.40;99.60
46356;DHT22;32066;49.474;11.106;2022-12-07T07:45:21;6.30;99.60
46356;DHT22;32066;49.474;11.106;2022-12-07T07:47:48;6.40;99.60
46356;DHT22;32066;49.474;11.106;2022-12-07T07:50:15;6.40;99.60
46356;DHT22;32066;49.474;11.106;2022-12-07T07:52:43;6.40;99.50
46356;DHT22;32066;49.474;11.106;2022-12-07T07:55:10;6.40;99.60
46356;DHT22;32066;49.474;11.106;2022-12-07T07:57:38;6.40;99.50
46356;DHT22;32066;49.474;11.106;2022-12-07T08:00:10;6.40;99.50
46356;DHT22;32066;49.474;11.106;2022-12-07T08:02:41;6.40;99.60
46356;DHT22;32066;49.474;11.106;2022-12-07T08:05:09;6.40;99.60
46356;DHT22;32066;49.474;11.106;2022-12-07T08:07:36;6.40;99.80
46356;DHT22;32066;49.474;11.106;2022-12-07T08:10:04;6.40;99.60
46356;DHT22;32066;49.474;11.106;2022-12-07T08:12:31;6.40;99.60
46356;DHT22;32066;49.474;11.106;2022-12-07T08:14:57;6.40;99.70
46356;DHT22;32066;49.474;11.106;2022-12-07T08:17:26;6.40;99.80
46356;DHT22;32066;49.474;11.106;2022-12-07T08:19:52;6.40;99.80
46356;DHT22;32066;49.474;11.106;2022-12-07T08:22:19;6.30;99.90
46356;DHT22;32066;49.474;11.106;2022-12-07T08:24:46;6.40;99.90
46356;DHT22;32066;49.474;11.106;2022-12-07T08:27:13;6.40;99.90
46356;DHT22;32066;49.474;11.106;2022-12-07T08:29:39;6.40;99.80
46356;DHT22;32066;49.474;11.106;2022-12-07T08:32:06;6.40;99.70
46356;DHT22;32066;49.474;11.106;2022-12-07T08:34:34;6.40;99.60
46356;DHT22;32066;49.474;11.106;2022-12-07T08:37:02;6.50;99.90
46356;DHT22;32066;49.474;11.106;2022-12-07T08:39:29;6.40;99.80
46356;DHT22;32066;49.474;11.106;2022-12-07T08:41:56;6.40;99.80
46356;DHT22;32066;49.474;11.106;2022-12-07T08:44:22;6.40;99.80
46356;DHT22;32066;49.474;11.106;2022-12-07T08:46:51;6.40;99.80
46356;DHT22;32066;49.474;11.106;2022-12-07T08:49:22;6.40;99.80
46356;DHT22;32066;49.474;11.106;2022-12-07T08:51:52;6.40;99.80
46356;DHT22;32066;49.474;11.106;2022-12-07T08:54:19;6.50;99.70
46356;DHT22;32066;49.474;11.106;2022-12-07T08:56:47;6.50;99.60
46356;DHT22;32066;49.474;11.106;2022-12-07T08:59:17;6.50;99.60
46356;DHT22;32066;49.474;11.106;2022-12-07T09:01:44;6.50;99.60
46356;DHT22;32066;49.474;11.106;2022-12-07T09:04:11;6.50;99.70
46356;DHT22;32066;49.474;11.106;2022-12-07T09:06:38;6.60;99.70
46356;DHT22;32066;49.474;11.106;2022-12-07T09:09:06;6.50;99.70
46356;DHT22;32066;49.474;11.106;2022-12-07T09:11:34;6.60;99.60
46356;DHT22;32066;49.474;11.106;2022-12-07T09:14:01;6.50;99.70
46356;DHT22;32066;49.474;11.106;2022-12-07T09:16:28;6.60;99.70
46356;DHT22;32066;49.474;11.106;2022-12-07T09:18:55;6.50;99.70
46356;DHT22;32066;49.474;11.106;2022-12-07T09:21:22;6.50;99.70
46356;DHT22;32066;49.474;11.106;2022-12-07T09:23:49;6.50;99.80
46356;DHT22;32066;49.474;11.106;2022-12-07T09:26:17;6.50;99.80
46356;DHT22;32066;49.474;11.106;2022-12-07T09:28:43;6.50;99.80
46356;DHT22;32066;49.474;11.106;2022-12-07T09:31:10;6.50;99.80
46356;DHT22;32066;49.474;11.106;2022-12-07T09:33:37;6.50;99.90
46356;DHT22;32066;49.474;11.106;2022-12-07T09:36:04;6.50;99.90
46356;DHT22;32066;49.474;11.106;2022-12-07T09:38:31;6.50;99.90
46356;DHT22;32066;49.474;11.106;2022-12-07T09:41:04;6.50;99.90
46356;DHT22;32066;49.474;11.106;2022-12-07T09:43:34;6.50;99.90
46356;DHT22;32066;49.474;11.106;2022-12-07T09:46:02;6.50;99.90
46356;DHT22;32066;49.474;11.106;2022-12-07T09:48:32;6.50;99.90
46356;DHT22;32066;49.474;11.106;2022-12-07T09:51:01;6.50;99.90
46356;DHT22;32066;49.474;11.106;2022-12-07T09:53:32;6.60;99.80
46356;DHT22;32066;49.474;11.106;2022-12-07T09:56:02;6.50;99.90
46356;DHT22;32066;49.474;11.106;2022-12-07T09:58:30;6.50;99.90
46356;DHT22;32066;49.474;11.106;2022-12-07T10:01:01;6.60;99.90
46356;DHT22;32066;49.474;11.106;2022-12-07T10:03:28;6.60;99.90
46356;DHT22;32066;49.474;11.106;2022-12-07T10:05:55;6.50;99.90
46356;DHT22;32066;49.474;11.106;2022-12-07T10:08:25;6.60;99.90
46356;DHT22;32066;49.474;11.106;2022-12-07T10:10:54;6.60;99.90
46356;DHT22;32066;49.474;11.106;2022-12-07T10:13:34;6.50;99.90
46356;DHT22;32066;49.474;11.106;2022-12-07T10:16:02;6.60;99.90
46356;DHT22;32066;49.474;11.106;2022-12-07T10:18:31;6.60;99.90
46356;DHT22;32066;49.474;11.106;2022-12-07T10:21:10;6.60;99.90
46356;DHT22;32066;49.474;11.106;2022-12-07T10:23:39;6.60;99.90
46356;DHT22;32066;49.474;11.106;2022-12-07T10:26:29;6.60;99.90
46356;DHT22;32066;49.474;11.106;2022-12-07T10:28:59;6.70;99.90
46356;DHT22;32066;49.474;11.106;2022-12-07T10:31:28;6.60;99.90
46356;DHT22;32066;49.474;11.106;2022-12-07T10:33:57;6.60;99.90
46356;DHT22;32066;49.474;11.106;2022-12-07T10:36:26;6.60;99.90
46356;DHT22;32066;49.474;11.106;2022-12-07T10:38:59;6.60;99.90
46356;DHT22;32066;49.474;11.106;2022-12-07T10:41:26;6.60;99.90
46356;DHT22;32066;49.474;11.106;2022-12-07T10:43:55;6.60;99.90
46356;DHT22;32066;49.474;11.106;2022-12-07T10:46:58;6.60;99.90
46356;DHT22;32066;49.474;11.106;2022-12-07T10:49:46;6.70;99.90
46356;DHT22;32066;49.474;11.106;2022-12-07T10:52:30;6.70;99.90
46356;DHT22;32066;49.474;11.106;2022-12-07T10:55:15;6.70;99.90
46356;DHT22;32066;49.474;11.106;2022-12-07T10:57:52;6.70;99.90
46356;DHT22;32066;49.474;11.106;2022-12-07T11:00:23;6.70;99.90
46356;DHT22;32066;49.474;11.106;2022-12-07T11:03:05;6.70;99.90
46356;DHT22;32066;49.474;11.106;2022-12-07T11:05:39;6.80;99.90
46356;DHT22;32066;49.474;11.106;2022-12-07T11:08:16;6.80;99.90
46356;DHT22;32066;49.474;11.106;2022-12-07T11:10:52;6.80;99.90
46356;DHT22;32066;49.474;11.106;2022-12-07T11:13:27;6.80;99.90
46356;DHT22;32066;49.474;11.106;2022-12-07T11:16:04;6.80;99.90
46356;DHT22;32066;49.474;11.106;2022-12-07T11:18:43;6.80;99.90
46356;DHT22;32066;49.474;11.106;2022-12-07T11:21:18;6.80;99.90
46356;DHT22;32066;49.474;11.106;2022-12-07T11:23:49;6.80;99.90
46356;DHT22;32066;49.474;11.106;2022-12-07T11:26:29;6.80;99.90
46356;DHT22;32066;49.474;11.106;2022-12-07T11:29:15;6.90;99.90
46356;DHT22;32066;49.474;11.106;2022-12-07T11:31:58;6.90;99.90
46356;DHT22;32066;49.474;11.106;2022-12-07T11:34:36;6.90;99.90
46356;DHT22;32066;49.474;11.106;2022-12-07T11:37:09;6.90;99.90
46356;DHT22;32066;49.474;11.106;2022-12-07T11:39:41;7.00;99.90
46356;DHT22;32066;49.474;11.106;2022-12-07T11:42:15;6.90;99.90
46356;DHT22;32066;49.474;11.106;2022-12-07T11:44:50;6.90;99.90
46356;DHT22;32066;49.474;11.106;2022-12-07T11:47:24;6.90;99.90
46356;DHT22;32066;49.474;11.106;2022-12-07T11:49:58;6.90;99.90
46356;DHT22;32066;49.474;11.106;2022-12-07T11:52:36;7.00;99.90
46356;DHT22;32066;49.474;11.106;2022-12-07T11:55:16;7.00;99.90
46356;DHT22;32066;49.474;11.106;2022-12-07T11:57:48;7.00;99.90
46356;DHT22;32066;49.474;11.106;2022-12-07T12:00:18;7.00;99.90
46356;DHT22;32066;49.474;11.106;2022-12-07T12:02:50;6.90;99.90
46356;DHT22;32066;49.474;11.106;2022-12-07T12:05:22;7.00;99.90
46356;DHT22;32066;49.474;11.106;2022-12-07T12:07:55;7.00;99.90
46356;DHT22;32066;49.474;11.106;2022-12-07T12:10:26;7.00;99.90
46356;DHT22;32066;49.474;11.106;2022-12-07T12:16:18;7.00;99.90
46356;DHT22;32066;49.474;11.106;2022-12-07T12:19:15;7.00;99.90
46356;DHT22;32066;49.474;11.106;2022-12-07T12:21:46;7.00;99.90
46356;DHT22;32066;49.474;11.106;2022-12-07T12:24:18;7.00;99.90
46356;DHT22;32066;49.474;11.106;2022-12-07T12:26:51;7.00;99.90
46356;DHT22;32066;49.474;11.106;2022-12-07T12:29:22;7.00;99.90
46356;DHT22;32066;49.474;11.106;2022-12-07T12:32:06;7.00;99.90
46356;DHT22;32066;49.474;11.106;2022-12-07T12:34:39;7.00;99.90
46356;DHT22;32066;49.474;11.106;2022-12-07T12:37:41;7.00;99.90
46356;DHT22;32066;49.474;11.106;2022-12-07T12:40:45;7.00;99.90
46356;DHT22;32066;49.474;11.106;2022-12-07T12:43:50;7.00;99.90
46356;DHT22;32066;49.474;11.106;2022-12-07T12:46:37;6.90;99.90
46356;DHT22;32066;49.474;11.106;2022-12-07T12:55:19;7.00;99.90
46356;DHT22;32066;49.474;11.106;2022-12-07T12:57:55;7.00;99.90
46356;DHT22;32066;49.474;11.106;2022-12-07T13:00:42;7.00;99.90
46356;DHT22;32066;49.474;11.106;2022-12-07T13:03:21;7.00;99.90
46356;DHT22;32066;49.474;11.106;2022-12-07T13:06:19;7.00;99.90
46356;DHT22;32066;49.474;11.106;2022-12-07T13:08:46;7.00;99.90
46356;DHT22;32066;49.474;11.106;2022-12-07T13:11:20;6.90;99.90
46356;DHT22;32066;49.474;11.106;2022-12-07T13:13:52;6.90;99.90
46356;DHT22;32066;49.474;11.106;2022-12-07T13:16:45;7.00;99.90
46356;DHT22;32066;49.474;11.106;2022-12-07T13:22:50;6.90;99.90
46356;DHT22;32066;49.474;11.106;2022-12-07T13:25:33;6.90;99.90
46356;DHT22;32066;49.474;11.106;2022-12-07T13:28:10;6.90;99.90
46356;DHT22;32066;49.474;11.106;2022-12-07T13:30:46;6.90;99.90
46356;DHT22;32066;49.474;11.106;2022-12-07T13:33:13;6.90;99.90
46356;DHT22;32066;49.474;11.106;2022-12-07T13:35:41;6.90;99.90
46356;DHT22;32066;49.474;11.106;2022-12-07T13:38:22;6.90;99.90
46356;DHT22;32066;49.474;11.106;2022-12-07T13:41:20;6.90;99.90
46356;DHT22;32066;49.474;11.106;2022-12-07T13:43:58;6.90;99.90
46356;DHT22;32066;49.474;11.106;2022-12-07T13:46:34;6.90;99.90
46356;DHT22;32066;49.474;11.106;2022-12-07T13:49:02;6.90;99.90
46356;DHT22;32066;49.474;11.106;2022-12-07T13:51:34;6.90;99.90
46356;DHT22;32066;49.474;11.106;2022-12-07T13:54:10;6.90;99.90
46356;DHT22;32066;49.474;11.106;2022-12-07T13:56:37;6.90;99.90
46356;DHT22;32066;49.474;11.106;2022-12-07T13:59:13;6.90;99.90
46356;DHT22;32066;49.474;11.106;2022-12-07T14:01:40;6.90;99.90
46356;DHT22;32066;49.474;11.106;2022-12-07T14:04:18;6.90;99.90
46356;DHT22;32066;49.474;11.106;2022-12-07T14:06:49;7.00;99.90
46356;DHT22;32066;49.474;11.106;2022-12-07T14:09:19;6.90;99.90
46356;DHT22;32066;49.474;11.106;2022-12-07T14:11:49;7.00;99.90
46356;DHT22;32066;49.474;11.106;2022-12-07T14:14:20;7.00;99.90
46356;DHT22;32066;49.474;11.106;2022-12-07T14:16:59;6.90;99.90
46356;DHT22;32066;49.474;11.106;2022-12-07T14:19:42;6.90;99.90
46356;DHT22;32066;49.474;11.106;2022-12-07T14:22:19;6.90;99.90
46356;DHT22;32066;49.474;11.106;2022-12-07T14:24:47;6.90;99.90
46356;DHT22;32066;49.474;11.106;2022-12-07T14:27:18;6.90;99.90
46356;DHT22;32066;49.474;11.106;2022-12-07T14:29:47;6.90;99.90
46356;DHT22;32066;49.474;11.106;2022-12-07T14:32:21;7.00;99.90
46356;DHT22;32066;49.474;11.106;2022-12-07T14:34:54;7.00;99.90
46356;DHT22;32066;49.474;11.106;2022-12-07T14:37:21;7.00;99.90
46356;DHT22;32066;49.474;11.106;2022-12-07T14:39:48;7.00;99.90
46356;DHT22;32066;49.474;11.106;2022-12-07T14:42:15;7.00;99.90
46356;DHT22;32066;49.474;11.106;2022-12-07T14:44:42;6.90;99.90
46356;DHT22;32066;49.474;11.106;2022-12-07T14:47:10;6.90;99.90
46356;DHT22;32066;49.474;11.106;2022-12-07T14:49:38;6.90;99.90
46356;DHT22;32066;49.474;11.106;2022-12-07T14:52:05;6.90;99.90
46356;DHT22;32066;49.474;11.106;2022-12-07T14:54:33;6.90;99.90
46356;DHT22;32066;49.474;11.106;2022-12-07T14:57:00;6.80;99.90
46356;DHT22;32066;49.474;11.106;2022-12-07T14:59:27;6.80;99.90
46356;DHT22;32066;49.474;11.106;2022-12-07T15:01:53;6.90;99.90
46356;DHT22;32066;49.474;11.106;2022-12-07T15:04:22;6.80;99.90
46356;DHT22;32066;49.474;11.106;2022-12-07T15:06:55;6.80;99.90
46356;DHT22;32066;49.474;11.106;2022-12-07T15:09:22;6.80;99.90
46356;DHT22;32066;49.474;11.106;2022-12-07T15:11:49;6.80;99.90
46356;DHT22;32066;49.474;11.106;2022-12-07T15:14:16;6.80;99.90
46356;DHT22;32066;49.474;11.106;2022-12-07T15:16:43;6.80;99.90
46356;DHT22;32066;49.474;11.106;2022-12-07T15:19:12;6.80;99.90
46356;DHT22;32066;49.474;11.106;2022-12-07T15:21:41;6.90;99.90
46356;DHT22;32066;49.474;11.106;2022-12-07T15:24:09;6.90;99.90
46356;DHT22;32066;49.474;11.106;2022-12-07T15:26:37;6.90;99.90
46356;DHT22;32066;49.474;11.106;2022-12-07T15:29:04;6.90;99.90
46356;DHT22;32066;49.474;11.106;2022-12-07T15:31:38;6.90;99.90
46356;DHT22;32066;49.474;11.106;2022-12-07T15:34:05;6.90;99.90
46356;DHT22;32066;49.474;11.106;2022-12-07T15:36:33;6.80;99.90
46356;DHT22;32066;49.474;11.106;2022-12-07T15:38:59;6.90;99.90
46356;DHT22;32066;49.474;11.106;2022-12-07T15:41:26;6.90;99.90
46356;DHT22;32066;49.474;11.106;2022-12-07T15:43:53;6.80;99.90
46356;DHT22;32066;49.474;11.106;2022-12-07T15:46:40;6.90;99.90
46356;DHT22;32066;49.474;11.106;2022-12-07T15:49:11;6.90;99.90
46356;DHT22;32066;49.474;11.106;2022-12-07T15:51:38;6.90;99.90
46356;DHT22;32066;49.474;11.106;2022-12-07T15:54:05;6.80;99.90
46356;DHT22;32066;49.474;11.106;2022-12-07T15:56:32;6.80;99.90
46356;DHT22;32066;49.474;11.106;2022-12-07T15:58:59;6.80;99.90
46356;DHT22;32066;49.474;11.106;2022-12-07T16:01:26;6.70;99.90
46356;DHT22;32066;49.474;11.106;2022-12-07T16:03:54;6.70;99.90
46356;DHT22;32066;49.474;11.106;2022-12-07T16:06:23;6.70;99.90